Impacts TAF Board INFO
FOR SITUATIONAL AWARENESS. NOT TO BE USED FOR FLIGHT PLANNING PURPOSES.
IDs:

KDTW - Detroit Metro/Wayne, MI, US

Issued at 2324 UTC 17 Aug 2018
Updated at 0128 UTC 18 Aug 2018
Potential Impact None Slight Moderate High
Time<<18/14Z 18/15Z 18/16Z 18/17Z 18/18Z 18/19Z 18/20Z 18/21Z 18/22Z 18/23Z 19/00Z 19/01Z 19/02Z>>
Type PRVL PRVL PRVL PRVL PRVL PRVL PRVL PRVL PRVL PRVL PRVL PRVL PRVL
VIS >6 >6 >6 >6 >6 >6 >6 >6 >6 >6 >6 >6 >6
CIG 100 -- -- 40 40 40 40 40 40 40 40 40 40
Cover BKN SCT SCT BKN BKN BKN BKN BKN BKN BKN BKN BKN BKN
FltCat VFR VFR VFR VFR VFR VFR VFR VFR VFR VFR VFR VFR VFR
WX -- -- -- -- -- -- -- -- -- -- -- -- --
WDir 330 10 10 360 360 360 360 360 360 360 360 360 360
WSpd 6 10 10 10 10 10 10 10 10 10 10 10 10
WGst -- -- -- -- -- -- -- -- -- -- -- -- --

Raw TAF
KDTW 172324Z 1800/1906 VRB04KT P6SM VCSH SCT030 BKN045
  TEMPO 1800/1802 2SM RA OVC025
  FM180200 33006KT P6SM SCT015 BKN100
  FM181500 01010KT P6SM SCT050
  FM181700 36010KT P6SM BKN040


METAR Board
Radar Display
Forecast Discussion

FOR SITUATIONAL AWARENESS. NOT TO BE USED FOR FLIGHT PLANNING PURPOSES.